sensor_id;sensor_type;location;lat;lon;timestamp;P1;durP1;ratioP1;P2;durP2;ratioP2
60026;SDS011;45891;53.006;6.512;2023-07-24T00:01:39;15.75;;;6.60;;
60026;SDS011;45891;53.006;6.512;2023-07-24T00:04:05;13.98;;;6.70;;
60026;SDS011;45891;53.006;6.512;2023-07-24T00:06:31;15.90;;;6.68;;
60026;SDS011;45891;53.006;6.512;2023-07-24T00:08:57;17.10;;;7.28;;
60026;SDS011;45891;53.006;6.512;2023-07-24T00:11:23;14.73;;;7.13;;
60026;SDS011;45891;53.006;6.512;2023-07-24T00:13:49;14.75;;;7.40;;
60026;SDS011;45891;53.006;6.512;2023-07-24T00:16:15;19.25;;;7.82;;
60026;SDS011;45891;53.006;6.512;2023-07-24T00:18:42;14.88;;;7.88;;
60026;SDS011;45891;53.006;6.512;2023-07-24T00:21:08;14.68;;;7.75;;
60026;SDS011;45891;53.006;6.512;2023-07-24T00:23:36;16.17;;;7.93;;
60026;SDS011;45891;53.006;6.512;2023-07-24T00:26:02;15.43;;;7.47;;
60026;SDS011;45891;53.006;6.512;2023-07-24T00:28:28;14.02;;;7.75;;
60026;SDS011;45891;53.006;6.512;2023-07-24T00:30:54;16.38;;;7.60;;
60026;SDS011;45891;53.006;6.512;2023-07-24T00:33:21;17.63;;;7.40;;
60026;SDS011;45891;53.006;6.512;2023-07-24T00:35:47;15.70;;;8.18;;
60026;SDS011;45891;53.006;6.512;2023-07-24T00:38:13;14.82;;;7.50;;
60026;SDS011;45891;53.006;6.512;2023-07-24T00:40:40;13.88;;;7.68;;
60026;SDS011;45891;53.006;6.512;2023-07-24T00:43:06;16.08;;;7.68;;
60026;SDS011;45891;53.006;6.512;2023-07-24T00:45:32;13.55;;;7.65;;
60026;SDS011;45891;53.006;6.512;2023-07-24T00:47:59;15.70;;;7.90;;
60026;SDS011;45891;53.006;6.512;2023-07-24T00:50:26;18.25;;;8.02;;
60026;SDS011;45891;53.006;6.512;2023-07-24T00:52:54;16.75;;;8.68;;
60026;SDS011;45891;53.006;6.512;2023-07-24T00:55:20;18.40;;;8.85;;
60026;SDS011;45891;53.006;6.512;2023-07-24T00:57:46;15.25;;;8.10;;
60026;SDS011;45891;53.006;6.512;2023-07-24T01:00:12;14.38;;;8.52;;
60026;SDS011;45891;53.006;6.512;2023-07-24T01:02:39;17.33;;;9.00;;
60026;SDS011;45891;53.006;6.512;2023-07-24T01:05:05;19.33;;;9.65;;
60026;SDS011;45891;53.006;6.512;2023-07-24T01:07:33;17.40;;;9.15;;
60026;SDS011;45891;53.006;6.512;2023-07-24T01:09:59;18.92;;;9.90;;
60026;SDS011;45891;53.006;6.512;2023-07-24T01:12:27;20.80;;;9.57;;
60026;SDS011;45891;53.006;6.512;2023-07-24T01:15:14;18.38;;;9.57;;
60026;SDS011;45891;53.006;6.512;2023-07-24T01:17:48;17.15;;;9.38;;
60026;SDS011;45891;53.006;6.512;2023-07-24T01:20:18;18.48;;;10.27;;
60026;SDS011;45891;53.006;6.512;2023-07-24T01:22:48;17.98;;;10.02;;
60026;SDS011;45891;53.006;6.512;2023-07-24T01:25:32;20.10;;;10.90;;
60026;SDS011;45891;53.006;6.512;2023-07-24T01:28:06;17.13;;;10.98;;
60026;SDS011;45891;53.006;6.512;2023-07-24T01:30:33;18.02;;;10.60;;
60026;SDS011;45891;53.006;6.512;2023-07-24T01:32:59;18.50;;;11.20;;
60026;SDS011;45891;53.006;6.512;2023-07-24T01:35:25;21.25;;;11.38;;
60026;SDS011;45891;53.006;6.512;2023-07-24T01:37:53;18.55;;;11.95;;
60026;SDS011;45891;53.006;6.512;2023-07-24T01:40:21;16.00;;;11.15;;
60026;SDS011;45891;53.006;6.512;2023-07-24T01:42:48;15.90;;;11.40;;
60026;SDS011;45891;53.006;6.512;2023-07-24T01:45:15;17.95;;;11.65;;
60026;SDS011;45891;53.006;6.512;2023-07-24T01:47:41;18.50;;;11.52;;
60026;SDS011;45891;53.006;6.512;2023-07-24T01:50:07;18.65;;;11.93;;
60026;SDS011;45891;53.006;6.512;2023-07-24T01:52:34;16.33;;;10.77;;
60026;SDS011;45891;53.006;6.512;2023-07-24T01:55:00;17.45;;;10.50;;
60026;SDS011;45891;53.006;6.512;2023-07-24T01:57:26;17.42;;;10.80;;
60026;SDS011;45891;53.006;6.512;2023-07-24T01:59:52;16.58;;;10.35;;
60026;SDS011;45891;53.006;6.512;2023-07-24T02:02:18;17.13;;;10.82;;
60026;SDS011;45891;53.006;6.512;2023-07-24T02:04:45;17.73;;;10.52;;
60026;SDS011;45891;53.006;6.512;2023-07-24T02:07:12;17.90;;;10.50;;
60026;SDS011;45891;53.006;6.512;2023-07-24T02:09:38;16.38;;;10.60;;
60026;SDS011;45891;53.006;6.512;2023-07-24T02:12:04;15.43;;;10.70;;
60026;SDS011;45891;53.006;6.512;2023-07-24T02:14:31;16.75;;;11.10;;
60026;SDS011;45891;53.006;6.512;2023-07-24T02:16:57;20.52;;;11.23;;
60026;SDS011;45891;53.006;6.512;2023-07-24T02:19:23;19.27;;;10.63;;
60026;SDS011;45891;53.006;6.512;2023-07-24T02:21:49;19.00;;;10.73;;
60026;SDS011;45891;53.006;6.512;2023-07-24T02:24:15;16.77;;;9.73;;
60026;SDS011;45891;53.006;6.512;2023-07-24T02:26:41;16.00;;;9.73;;
60026;SDS011;45891;53.006;6.512;2023-07-24T02:29:07;15.07;;;9.38;;
60026;SDS011;45891;53.006;6.512;2023-07-24T02:31:33;14.88;;;9.60;;
60026;SDS011;45891;53.006;6.512;2023-07-24T02:33:59;16.95;;;9.95;;
60026;SDS011;45891;53.006;6.512;2023-07-24T02:36:26;16.70;;;10.13;;
60026;SDS011;45891;53.006;6.512;2023-07-24T02:38:52;16.55;;;10.30;;
60026;SDS011;45891;53.006;6.512;2023-07-24T02:41:18;17.77;;;10.25;;
60026;SDS011;45891;53.006;6.512;2023-07-24T02:43:44;18.58;;;9.88;;
60026;SDS011;45891;53.006;6.512;2023-07-24T02:46:10;15.13;;;9.90;;
60026;SDS011;45891;53.006;6.512;2023-07-24T02:48:36;15.75;;;10.20;;
60026;SDS011;45891;53.006;6.512;2023-07-24T02:51:02;17.13;;;10.35;;
60026;SDS011;45891;53.006;6.512;2023-07-24T02:53:28;15.18;;;9.57;;
60026;SDS011;45891;53.006;6.512;2023-07-24T02:55:54;15.70;;;10.15;;
60026;SDS011;45891;53.006;6.512;2023-07-24T02:58:20;17.73;;;10.32;;
60026;SDS011;45891;53.006;6.512;2023-07-24T03:00:46;15.25;;;10.20;;
60026;SDS011;45891;53.006;6.512;2023-07-24T03:03:13;16.33;;;10.23;;
60026;SDS011;45891;53.006;6.512;2023-07-24T03:05:39;17.90;;;10.85;;
60026;SDS011;45891;53.006;6.512;2023-07-24T03:08:05;17.65;;;10.23;;
60026;SDS011;45891;53.006;6.512;2023-07-24T03:10:31;17.80;;;10.85;;
60026;SDS011;45891;53.006;6.512;2023-07-24T03:12:57;15.48;;;10.25;;
60026;SDS011;45891;53.006;6.512;2023-07-24T03:15:23;15.10;;;10.30;;
60026;SDS011;45891;53.006;6.512;2023-07-24T03:17:49;16.58;;;10.50;;
60026;SDS011;45891;53.006;6.512;2023-07-24T03:20:16;16.85;;;10.60;;
60026;SDS011;45891;53.006;6.512;2023-07-24T03:22:44;16.92;;;10.98;;
60026;SDS011;45891;53.006;6.512;2023-07-24T03:25:10;17.55;;;11.48;;
60026;SDS011;45891;53.006;6.512;2023-07-24T03:27:36;17.98;;;10.90;;
60026;SDS011;45891;53.006;6.512;2023-07-24T03:30:02;18.48;;;11.23;;
60026;SDS011;45891;53.006;6.512;2023-07-24T03:32:29;16.90;;;11.27;;
60026;SDS011;45891;53.006;6.512;2023-07-24T03:34:55;16.02;;;10.68;;
60026;SDS011;45891;53.006;6.512;2023-07-24T03:37:21;15.32;;;10.82;;
60026;SDS011;45891;53.006;6.512;2023-07-24T03:39:47;18.08;;;11.63;;
60026;SDS011;45891;53.006;6.512;2023-07-24T03:42:23;16.65;;;11.15;;
60026;SDS011;45891;53.006;6.512;2023-07-24T03:44:54;15.85;;;10.63;;
60026;SDS011;45891;53.006;6.512;2023-07-24T03:47:21;16.08;;;10.85;;
60026;SDS011;45891;53.006;6.512;2023-07-24T03:49:47;17.40;;;10.68;;
60026;SDS011;45891;53.006;6.512;2023-07-24T03:52:13;16.38;;;11.25;;
60026;SDS011;45891;53.006;6.512;2023-07-24T03:54:39;16.40;;;11.35;;
60026;SDS011;45891;53.006;6.512;2023-07-24T03:57:05;15.25;;;10.88;;
60026;SDS011;45891;53.006;6.512;2023-07-24T03:59:31;16.25;;;10.20;;
60026;SDS011;45891;53.006;6.512;2023-07-24T04:01:58;16.65;;;10.23;;
60026;SDS011;45891;53.006;6.512;2023-07-24T04:04:24;14.40;;;10.13;;
60026;SDS011;45891;53.006;6.512;2023-07-24T04:06:50;15.57;;;10.32;;
60026;SDS011;45891;53.006;6.512;2023-07-24T04:09:16;13.77;;;9.82;;
60026;SDS011;45891;53.006;6.512;2023-07-24T04:11:42;16.05;;;10.27;;
60026;SDS011;45891;53.006;6.512;2023-07-24T04:14:09;14.50;;;10.13;;
60026;SDS011;45891;53.006;6.512;2023-07-24T04:16:36;15.93;;;10.40;;
60026;SDS011;45891;53.006;6.512;2023-07-24T04:19:03;15.50;;;9.88;;
60026;SDS011;45891;53.006;6.512;2023-07-24T04:21:29;14.63;;;10.15;;
60026;SDS011;45891;53.006;6.512;2023-07-24T04:23:55;16.40;;;9.98;;
60026;SDS011;45891;53.006;6.512;2023-07-24T04:26:21;17.85;;;10.10;;
60026;SDS011;45891;53.006;6.512;2023-07-24T04:28:47;16.67;;;9.63;;
60026;SDS011;45891;53.006;6.512;2023-07-24T04:31:13;14.10;;;9.57;;
60026;SDS011;45891;53.006;6.512;2023-07-24T04:33:39;17.83;;;10.15;;
60026;SDS011;45891;53.006;6.512;2023-07-24T04:36:05;14.65;;;9.75;;
60026;SDS011;45891;53.006;6.512;2023-07-24T04:38:31;14.60;;;9.68;;
60026;SDS011;45891;53.006;6.512;2023-07-24T04:41:00;15.55;;;9.52;;
60026;SDS011;45891;53.006;6.512;2023-07-24T04:43:26;14.95;;;10.13;;
60026;SDS011;45891;53.006;6.512;2023-07-24T04:45:52;13.73;;;9.55;;
60026;SDS011;45891;53.006;6.512;2023-07-24T04:48:19;14.77;;;9.52;;
60026;SDS011;45891;53.006;6.512;2023-07-24T04:50:45;15.02;;;9.48;;
60026;SDS011;45891;53.006;6.512;2023-07-24T04:53:11;15.82;;;9.90;;
60026;SDS011;45891;53.006;6.512;2023-07-24T04:55:37;15.85;;;9.40;;
60026;SDS011;45891;53.006;6.512;2023-07-24T04:58:03;17.23;;;10.25;;
60026;SDS011;45891;53.006;6.512;2023-07-24T05:00:29;14.85;;;9.90;;
60026;SDS011;45891;53.006;6.512;2023-07-24T05:02:55;13.27;;;9.15;;
60026;SDS011;45891;53.006;6.512;2023-07-24T05:05:21;14.60;;;9.38;;
60026;SDS011;45891;53.006;6.512;2023-07-24T05:07:48;17.15;;;9.48;;
60026;SDS011;45891;53.006;6.512;2023-07-24T05:10:14;17.00;;;9.70;;
60026;SDS011;45891;53.006;6.512;2023-07-24T05:12:40;16.13;;;9.90;;
60026;SDS011;45891;53.006;6.512;2023-07-24T05:15:08;15.30;;;9.60;;
60026;SDS011;45891;53.006;6.512;2023-07-24T05:17:34;14.65;;;9.48;;
60026;SDS011;45891;53.006;6.512;2023-07-24T05:20:00;14.38;;;9.80;;
60026;SDS011;45891;53.006;6.512;2023-07-24T05:22:26;17.15;;;10.45;;
60026;SDS011;45891;53.006;6.512;2023-07-24T05:24:52;17.30;;;9.77;;
60026;SDS011;45891;53.006;6.512;2023-07-24T05:27:18;14.73;;;10.40;;
60026;SDS011;45891;53.006;6.512;2023-07-24T05:29:45;15.02;;;10.82;;
60026;SDS011;45891;53.006;6.512;2023-07-24T05:32:11;16.65;;;10.13;;
60026;SDS011;45891;53.006;6.512;2023-07-24T05:34:37;14.80;;;10.05;;
60026;SDS011;45891;53.006;6.512;2023-07-24T05:37:03;14.57;;;9.90;;
60026;SDS011;45891;53.006;6.512;2023-07-24T05:39:30;15.55;;;9.80;;
60026;SDS011;45891;53.006;6.512;2023-07-24T05:41:57;15.45;;;10.05;;
60026;SDS011;45891;53.006;6.512;2023-07-24T05:44:23;14.13;;;9.38;;
60026;SDS011;45891;53.006;6.512;2023-07-24T05:46:49;18.60;;;10.85;;
60026;SDS011;45891;53.006;6.512;2023-07-24T05:49:15;15.05;;;9.75;;
60026;SDS011;45891;53.006;6.512;2023-07-24T05:51:41;16.05;;;10.57;;
60026;SDS011;45891;53.006;6.512;2023-07-24T05:54:07;16.25;;;10.77;;
60026;SDS011;45891;53.006;6.512;2023-07-24T05:56:33;14.70;;;9.65;;
60026;SDS011;45891;53.006;6.512;2023-07-24T05:59:00;15.80;;;9.85;;
60026;SDS011;45891;53.006;6.512;2023-07-24T06:01:26;14.00;;;9.70;;
60026;SDS011;45891;53.006;6.512;2023-07-24T06:03:52;19.88;;;9.50;;
60026;SDS011;45891;53.006;6.512;2023-07-24T06:06:18;15.10;;;9.27;;
60026;SDS011;45891;53.006;6.512;2023-07-24T06:08:44;16.08;;;9.43;;
60026;SDS011;45891;53.006;6.512;2023-07-24T06:11:12;18.92;;;9.57;;
60026;SDS011;45891;53.006;6.512;2023-07-24T06:13:39;14.85;;;9.35;;
60026;SDS011;45891;53.006;6.512;2023-07-24T06:16:05;17.13;;;9.13;;
60026;SDS011;45891;53.006;6.512;2023-07-24T06:18:33;15.23;;;8.85;;
60026;SDS011;45891;53.006;6.512;2023-07-24T06:20:59;20.65;;;9.10;;
60026;SDS011;45891;53.006;6.512;2023-07-24T06:23:25;19.02;;;9.43;;
60026;SDS011;45891;53.006;6.512;2023-07-24T06:25:51;18.55;;;9.07;;
60026;SDS011;45891;53.006;6.512;2023-07-24T06:28:18;14.02;;;9.10;;
60026;SDS011;45891;53.006;6.512;2023-07-24T06:30:44;14.45;;;9.13;;
60026;SDS011;45891;53.006;6.512;2023-07-24T06:33:10;15.52;;;8.93;;
60026;SDS011;45891;53.006;6.512;2023-07-24T06:35:36;16.67;;;9.13;;
60026;SDS011;45891;53.006;6.512;2023-07-24T06:38:03;15.85;;;8.90;;
60026;SDS011;45891;53.006;6.512;2023-07-24T06:40:29;14.70;;;8.55;;
60026;SDS011;45891;53.006;6.512;2023-07-24T06:42:55;14.40;;;8.88;;
60026;SDS011;45891;53.006;6.512;2023-07-24T06:45:21;17.17;;;9.30;;
60026;SDS011;45891;53.006;6.512;2023-07-24T06:47:47;15.40;;;8.98;;
60026;SDS011;45891;53.006;6.512;2023-07-24T06:50:13;17.52;;;9.40;;
60026;SDS011;45891;53.006;6.512;2023-07-24T06:52:39;15.75;;;9.00;;
60026;SDS011;45891;53.006;6.512;2023-07-24T06:55:05;15.95;;;9.05;;
60026;SDS011;45891;53.006;6.512;2023-07-24T06:57:32;16.40;;;8.40;;
60026;SDS011;45891;53.006;6.512;2023-07-24T06:59:58;15.65;;;8.80;;
60026;SDS011;45891;53.006;6.512;2023-07-24T07:02:24;16.35;;;8.32;;
60026;SDS011;45891;53.006;6.512;2023-07-24T07:04:50;17.85;;;8.90;;
60026;SDS011;45891;53.006;6.512;2023-07-24T07:07:16;16.95;;;8.73;;
60026;SDS011;45891;53.006;6.512;2023-07-24T07:09:42;15.48;;;8.23;;
60026;SDS011;45891;53.006;6.512;2023-07-24T07:12:08;16.65;;;8.38;;
60026;SDS011;45891;53.006;6.512;2023-07-24T07:14:34;14.68;;;8.18;;
60026;SDS011;45891;53.006;6.512;2023-07-24T07:17:00;15.80;;;8.50;;
60026;SDS011;45891;53.006;6.512;2023-07-24T07:19:27;19.05;;;8.85;;
60026;SDS011;45891;53.006;6.512;2023-07-24T07:21:53;20.20;;;9.02;;
60026;SDS011;45891;53.006;6.512;2023-07-24T07:24:19;16.30;;;8.13;;
60026;SDS011;45891;53.006;6.512;2023-07-24T07:26:45;17.20;;;8.25;;
60026;SDS011;45891;53.006;6.512;2023-07-24T07:29:11;16.58;;;7.97;;
60026;SDS011;45891;53.006;6.512;2023-07-24T07:31:37;18.42;;;7.93;;
60026;SDS011;45891;53.006;6.512;2023-07-24T07:34:03;15.10;;;7.85;;
60026;SDS011;45891;53.006;6.512;2023-07-24T07:36:29;16.20;;;7.93;;
60026;SDS011;45891;53.006;6.512;2023-07-24T07:38:55;16.20;;;7.22;;
60026;SDS011;45891;53.006;6.512;2023-07-24T07:41:22;14.55;;;7.15;;
60026;SDS011;45891;53.006;6.512;2023-07-24T07:43:48;16.30;;;7.50;;
60026;SDS011;45891;53.006;6.512;2023-07-24T07:46:14;15.60;;;7.95;;
60026;SDS011;45891;53.006;6.512;2023-07-24T07:48:40;15.50;;;7.43;;
60026;SDS011;45891;53.006;6.512;2023-07-24T07:51:06;15.32;;;8.07;;
60026;SDS011;45891;53.006;6.512;2023-07-24T07:53:32;17.05;;;7.15;;
60026;SDS011;45891;53.006;6.512;2023-07-24T07:55:59;16.10;;;7.68;;
60026;SDS011;45891;53.006;6.512;2023-07-24T07:58:25;14.40;;;7.15;;
60026;SDS011;45891;53.006;6.512;2023-07-24T08:00:51;14.60;;;7.38;;
60026;SDS011;45891;53.006;6.512;2023-07-24T08:03:17;18.63;;;7.80;;
60026;SDS011;45891;53.006;6.512;2023-07-24T08:05:43;17.35;;;7.72;;
60026;SDS011;45891;53.006;6.512;2023-07-24T08:08:09;16.88;;;8.15;;
60026;SDS011;45891;53.006;6.512;2023-07-24T08:10:39;14.82;;;7.85;;
60026;SDS011;45891;53.006;6.512;2023-07-24T08:13:05;19.60;;;7.78;;
60026;SDS011;45891;53.006;6.512;2023-07-24T08:15:35;15.55;;;7.68;;
60026;SDS011;45891;53.006;6.512;2023-07-24T08:18:03;15.68;;;7.90;;
60026;SDS011;45891;53.006;6.512;2023-07-24T08:20:30;15.40;;;8.00;;
60026;SDS011;45891;53.006;6.512;2023-07-24T08:22:56;16.58;;;7.40;;
60026;SDS011;45891;53.006;6.512;2023-07-24T08:25:22;18.00;;;7.43;;
60026;SDS011;45891;53.006;6.512;2023-07-24T08:27:49;15.63;;;7.82;;
60026;SDS011;45891;53.006;6.512;2023-07-24T08:30:15;15.85;;;6.70;;
60026;SDS011;45891;53.006;6.512;2023-07-24T08:32:41;14.43;;;7.43;;
60026;SDS011;45891;53.006;6.512;2023-07-24T08:35:07;18.45;;;7.30;;
60026;SDS011;45891;53.006;6.512;2023-07-24T08:37:33;15.45;;;7.20;;
60026;SDS011;45891;53.006;6.512;2023-07-24T08:39:59;17.17;;;7.88;;
60026;SDS011;45891;53.006;6.512;2023-07-24T08:42:25;15.13;;;6.85;;
60026;SDS011;45891;53.006;6.512;2023-07-24T08:44:52;13.65;;;6.82;;
60026;SDS011;45891;53.006;6.512;2023-07-24T08:47:19;17.20;;;7.55;;
60026;SDS011;45891;53.006;6.512;2023-07-24T08:49:47;16.08;;;6.80;;
60026;SDS011;45891;53.006;6.512;2023-07-24T08:52:13;16.90;;;7.00;;
60026;SDS011;45891;53.006;6.512;2023-07-24T08:54:40;16.05;;;7.35;;
60026;SDS011;45891;53.006;6.512;2023-07-24T08:57:06;22.13;;;6.85;;
60026;SDS011;45891;53.006;6.512;2023-07-24T08:59:33;14.93;;;6.88;;
60026;SDS011;45891;53.006;6.512;2023-07-24T09:02:00;16.27;;;6.50;;
60026;SDS011;45891;53.006;6.512;2023-07-24T09:04:26;18.85;;;7.25;;
60026;SDS011;45891;53.006;6.512;2023-07-24T09:06:53;17.13;;;6.18;;
60026;SDS011;45891;53.006;6.512;2023-07-24T09:09:21;12.00;;;6.43;;
60026;SDS011;45891;53.006;6.512;2023-07-24T09:11:52;13.98;;;5.65;;
60026;SDS011;45891;53.006;6.512;2023-07-24T09:14:28;16.83;;;6.55;;
60026;SDS011;45891;53.006;6.512;2023-07-24T09:19:30;16.02;;;6.20;;
60026;SDS011;45891;53.006;6.512;2023-07-24T09:22:06;16.15;;;6.18;;
60026;SDS011;45891;53.006;6.512;2023-07-24T09:24:34;13.30;;;5.78;;
60026;SDS011;45891;53.006;6.512;2023-07-24T09:27:04;15.63;;;5.90;;
60026;SDS011;45891;53.006;6.512;2023-07-24T09:31:58;15.02;;;4.95;;
60026;SDS011;45891;53.006;6.512;2023-07-24T09:34:25;11.13;;;4.70;;
60026;SDS011;45891;53.006;6.512;2023-07-24T09:36:51;12.40;;;5.35;;
60026;SDS011;45891;53.006;6.512;2023-07-24T09:39:27;11.55;;;4.97;;
60026;SDS011;45891;53.006;6.512;2023-07-24T09:41:53;14.25;;;5.03;;
60026;SDS011;45891;53.006;6.512;2023-07-24T09:44:27;14.23;;;4.97;;
60026;SDS011;45891;53.006;6.512;2023-07-24T09:46:55;12.77;;;4.93;;
60026;SDS011;45891;53.006;6.512;2023-07-24T09:49:21;14.15;;;5.00;;
60026;SDS011;45891;53.006;6.512;2023-07-24T09:51:47;12.50;;;4.82;;
60026;SDS011;45891;53.006;6.512;2023-07-24T09:54:37;13.65;;;4.85;;
60026;SDS011;45891;53.006;6.512;2023-07-24T09:57:13;13.85;;;4.70;;
60026;SDS011;45891;53.006;6.512;2023-07-24T09:59:40;12.80;;;4.40;;
60026;SDS011;45891;53.006;6.512;2023-07-24T10:02:07;10.18;;;4.63;;
60026;SDS011;45891;53.006;6.512;2023-07-24T10:04:36;12.27;;;5.13;;
60026;SDS011;45891;53.006;6.512;2023-07-24T10:07:04;11.50;;;5.03;;
60026;SDS011;45891;53.006;6.512;2023-07-24T10:09:31;14.75;;;5.38;;
60026;SDS011;45891;53.006;6.512;2023-07-24T10:11:58;11.73;;;4.63;;
60026;SDS011;45891;53.006;6.512;2023-07-24T10:14:27;13.57;;;4.45;;
60026;SDS011;45891;53.006;6.512;2023-07-24T10:16:55;12.32;;;4.53;;
60026;SDS011;45891;53.006;6.512;2023-07-24T10:19:22;12.95;;;4.60;;
60026;SDS011;45891;53.006;6.512;2023-07-24T10:21:49;13.35;;;4.50;;
60026;SDS011;45891;53.006;6.512;2023-07-24T10:24:16;12.05;;;4.90;;
60026;SDS011;45891;53.006;6.512;2023-07-24T10:26:43;12.43;;;4.70;;
60026;SDS011;45891;53.006;6.512;2023-07-24T10:29:09;12.52;;;4.68;;
60026;SDS011;45891;53.006;6.512;2023-07-24T10:31:35;12.05;;;4.38;;
60026;SDS011;45891;53.006;6.512;2023-07-24T10:34:05;16.58;;;5.45;;
60026;SDS011;45891;53.006;6.512;2023-07-24T10:36:33;11.32;;;4.10;;
60026;SDS011;45891;53.006;6.512;2023-07-24T10:39:00;12.70;;;4.32;;
60026;SDS011;45891;53.006;6.512;2023-07-24T10:41:34;11.85;;;3.78;;
60026;SDS011;45891;53.006;6.512;2023-07-24T10:44:01;10.85;;;4.15;;
60026;SDS011;45891;53.006;6.512;2023-07-24T10:46:40;11.85;;;4.25;;
60026;SDS011;45891;53.006;6.512;2023-07-24T10:49:10;15.80;;;4.57;;
60026;SDS011;45891;53.006;6.512;2023-07-24T10:51:37;12.68;;;4.55;;
60026;SDS011;45891;53.006;6.512;2023-07-24T10:54:03;10.20;;;4.13;;
60026;SDS011;45891;53.006;6.512;2023-07-24T10:56:30;12.73;;;4.15;;
60026;SDS011;45891;53.006;6.512;2023-07-24T10:58:56;12.43;;;4.05;;
60026;SDS011;45891;53.006;6.512;2023-07-24T11:01:27;12.10;;;4.45;;
60026;SDS011;45891;53.006;6.512;2023-07-24T11:03:53;13.38;;;4.25;;
60026;SDS011;45891;53.006;6.512;2023-07-24T11:06:20;12.48;;;3.83;;
60026;SDS011;45891;53.006;6.512;2023-07-24T11:08:51;13.40;;;4.47;;
60026;SDS011;45891;53.006;6.512;2023-07-24T11:11:18;11.52;;;4.13;;
60026;SDS011;45891;53.006;6.512;2023-07-24T11:13:44;10.63;;;4.25;;
60026;SDS011;45891;53.006;6.512;2023-07-24T11:16:10;17.20;;;4.20;;
60026;SDS011;45891;53.006;6.512;2023-07-24T11:18:49;10.35;;;3.85;;
60026;SDS011;45891;53.006;6.512;2023-07-24T11:21:17;12.25;;;3.95;;
60026;SDS011;45891;53.006;6.512;2023-07-24T11:23:50;12.40;;;3.75;;
60026;SDS011;45891;53.006;6.512;2023-07-24T11:26:21;11.95;;;4.28;;
60026;SDS011;45891;53.006;6.512;2023-07-24T11:31:15;10.60;;;4.00;;
60026;SDS011;45891;53.006;6.512;2023-07-24T11:33:41;13.95;;;3.97;;
60026;SDS011;45891;53.006;6.512;2023-07-24T11:36:08;12.95;;;4.65;;
60026;SDS011;45891;53.006;6.512;2023-07-24T11:38:35;11.88;;;4.68;;
60026;SDS011;45891;53.006;6.512;2023-07-24T11:41:04;12.80;;;4.75;;
60026;SDS011;45891;53.006;6.512;2023-07-24T11:43:30;12.75;;;4.70;;
60026;SDS011;45891;53.006;6.512;2023-07-24T11:45:56;11.23;;;4.20;;
60026;SDS011;45891;53.006;6.512;2023-07-24T11:48:23;12.65;;;4.68;;
60026;SDS011;45891;53.006;6.512;2023-07-24T11:50:51;13.02;;;4.57;;
60026;SDS011;45891;53.006;6.512;2023-07-24T11:53:28;12.98;;;5.00;;
60026;SDS011;45891;53.006;6.512;2023-07-24T11:55:57;14.25;;;5.00;;
60026;SDS011;45891;53.006;6.512;2023-07-24T11:58:28;11.63;;;4.60;;
60026;SDS011;45891;53.006;6.512;2023-07-24T12:00:55;13.27;;;4.57;;
60026;SDS011;45891;53.006;6.512;2023-07-24T12:03:22;12.63;;;4.45;;
60026;SDS011;45891;53.006;6.512;2023-07-24T12:05:51;14.43;;;4.25;;
60026;SDS011;45891;53.006;6.512;2023-07-24T12:08:29;14.02;;;4.53;;
60026;SDS011;45891;53.006;6.512;2023-07-24T12:10:56;13.35;;;4.35;;
60026;SDS011;45891;53.006;6.512;2023-07-24T12:13:23;14.32;;;4.05;;
60026;SDS011;45891;53.006;6.512;2023-07-24T12:15:49;13.27;;;4.40;;
60026;SDS011;45891;53.006;6.512;2023-07-24T12:18:15;11.52;;;4.10;;
60026;SDS011;45891;53.006;6.512;2023-07-24T12:20:41;12.90;;;4.65;;
60026;SDS011;45891;53.006;6.512;2023-07-24T12:23:07;13.05;;;4.53;;
60026;SDS011;45891;53.006;6.512;2023-07-24T12:25:34;15.65;;;4.40;;
60026;SDS011;45891;53.006;6.512;2023-07-24T12:28:00;11.15;;;4.05;;
60026;SDS011;45891;53.006;6.512;2023-07-24T12:30:26;12.10;;;3.88;;
60026;SDS011;45891;53.006;6.512;2023-07-24T12:32:52;10.02;;;3.13;;
60026;SDS011;45891;53.006;6.512;2023-07-24T12:35:18;16.30;;;3.85;;
60026;SDS011;45891;53.006;6.512;2023-07-24T12:37:44;10.68;;;3.42;;
60026;SDS011;45891;53.006;6.512;2023-07-24T12:40:11;10.90;;;3.45;;
60026;SDS011;45891;53.006;6.512;2023-07-24T12:42:37;11.15;;;3.83;;
60026;SDS011;45891;53.006;6.512;2023-07-24T12:45:03;11.18;;;3.97;;
60026;SDS011;45891;53.006;6.512;2023-07-24T12:47:30;9.93;;;3.80;;
60026;SDS011;45891;53.006;6.512;2023-07-24T12:49:59;10.15;;;4.00;;
60026;SDS011;45891;53.006;6.512;2023-07-24T12:52:26;12.00;;;4.18;;
60026;SDS011;45891;53.006;6.512;2023-07-24T12:54:54;10.38;;;4.00;;
60026;SDS011;45891;53.006;6.512;2023-07-24T12:57:20;10.52;;;4.40;;
60026;SDS011;45891;53.006;6.512;2023-07-24T12:59:46;10.80;;;4.40;;
60026;SDS011;45891;53.006;6.512;2023-07-24T13:02:12;9.23;;;3.67;;
60026;SDS011;45891;53.006;6.512;2023-07-24T13:04:38;9.30;;;4.47;;
60026;SDS011;45891;53.006;6.512;2023-07-24T13:07:05;10.13;;;4.60;;
60026;SDS011;45891;53.006;6.512;2023-07-24T13:09:31;9.82;;;4.55;;
60026;SDS011;45891;53.006;6.512;2023-07-24T13:11:57;11.23;;;5.17;;
60026;SDS011;45891;53.006;6.512;2023-07-24T13:14:23;10.85;;;4.78;;
60026;SDS011;45891;53.006;6.512;2023-07-24T13:16:49;9.65;;;4.63;;
60026;SDS011;45891;53.006;6.512;2023-07-24T13:19:16;9.73;;;4.85;;
60026;SDS011;45891;53.006;6.512;2023-07-24T13:21:42;9.65;;;3.97;;
60026;SDS011;45891;53.006;6.512;2023-07-24T13:24:09;10.50;;;3.88;;
60026;SDS011;45891;53.006;6.512;2023-07-24T13:26:35;8.88;;;4.32;;
60026;SDS011;45891;53.006;6.512;2023-07-24T13:29:02;9.13;;;4.18;;
60026;SDS011;45891;53.006;6.512;2023-07-24T13:31:28;9.05;;;4.30;;
60026;SDS011;45891;53.006;6.512;2023-07-24T13:33:57;8.63;;;3.58;;
60026;SDS011;45891;53.006;6.512;2023-07-24T13:36:23;11.07;;;3.60;;
60026;SDS011;45891;53.006;6.512;2023-07-24T13:38:49;8.82;;;3.50;;
60026;SDS011;45891;53.006;6.512;2023-07-24T13:41:16;9.70;;;3.50;;
60026;SDS011;45891;53.006;6.512;2023-07-24T13:43:42;12.18;;;3.70;;
60026;SDS011;45891;53.006;6.512;2023-07-24T13:46:08;8.55;;;2.45;;
60026;SDS011;45891;53.006;6.512;2023-07-24T13:48:34;7.57;;;2.40;;
60026;SDS011;45891;53.006;6.512;2023-07-24T13:51:00;8.60;;;2.70;;
60026;SDS011;45891;53.006;6.512;2023-07-24T13:53:27;7.97;;;2.35;;
60026;SDS011;45891;53.006;6.512;2023-07-24T13:55:53;7.28;;;2.47;;
60026;SDS011;45891;53.006;6.512;2023-07-24T13:58:19;7.15;;;2.33;;
60026;SDS011;45891;53.006;6.512;2023-07-24T14:00:45;9.38;;;2.70;;
60026;SDS011;45891;53.006;6.512;2023-07-24T14:03:12;8.70;;;2.50;;
60026;SDS011;45891;53.006;6.512;2023-07-24T14:05:38;8.90;;;2.40;;
60026;SDS011;45891;53.006;6.512;2023-07-24T14:08:04;7.05;;;2.53;;
60026;SDS011;45891;53.006;6.512;2023-07-24T14:10:31;6.88;;;2.20;;
60026;SDS011;45891;53.006;6.512;2023-07-24T14:12:57;8.75;;;2.58;;
60026;SDS011;45891;53.006;6.512;2023-07-24T14:15:23;6.88;;;2.00;;
60026;SDS011;45891;53.006;6.512;2023-07-24T14:17:49;6.78;;;1.80;;
60026;SDS011;45891;53.006;6.512;2023-07-24T14:20:16;7.50;;;1.55;;
60026;SDS011;45891;53.006;6.512;2023-07-24T14:22:42;8.52;;;1.90;;
60026;SDS011;45891;53.006;6.512;2023-07-24T14:25:09;9.15;;;1.92;;
60026;SDS011;45891;53.006;6.512;2023-07-24T14:27:35;10.93;;;2.20;;
60026;SDS011;45891;53.006;6.512;2023-07-24T14:30:01;10.02;;;2.13;;
60026;SDS011;45891;53.006;6.512;2023-07-24T14:32:27;7.95;;;1.92;;
60026;SDS011;45891;53.006;6.512;2023-07-24T14:34:54;10.02;;;2.30;;
60026;SDS011;45891;53.006;6.512;2023-07-24T14:37:20;10.05;;;2.40;;
60026;SDS011;45891;53.006;6.512;2023-07-24T14:39:46;12.10;;;2.40;;